Time;durP1;ratioP1;P1;durP2;ratioP2;P2;SDS_P1;SDS_P2;PMS_P1;PMS_P2;Temp;Humidity;BMP_temperature;BMP_pressure;BME280_temperature;BME280_humidity;BME280_pressure;Samples;Min_cycle;Max_cycle;Signal;HPM_P1;HPM_P2
2022/04/27 00:00:30;;;;;;;9.33;4.70;;;11.50;56.10;;;;;;4938737;29;20208;-95
2022/04/27 00:02:59;;;;;;;6.57;4.30;;;11.50;56.00;;;;;;4936765;29;20212;-96
2022/04/27 00:05:27;;;;;;;13.17;5.13;;;11.40;56.00;;;;;;4947102;29;20208;-94
2022/04/27 00:07:54;;;;;;;12.37;5.13;;;11.40;56.00;;;;;;4953656;29;20208;-96
2022/04/27 00:10:25;;;;;;;15.80;5.77;;;11.40;56.20;;;;;;4946945;29;20576;-96
2022/04/27 00:12:55;;;;;;;8.77;4.40;;;11.30;56.40;;;;;;4939266;29;20235;-96
2022/04/27 00:15:28;;;;;;;8.20;3.90;;;11.30;56.30;;;;;;4938235;29;20243;-96
2022/04/27 00:17:55;;;;;;;9.70;4.40;;;11.20;56.50;;;;;;4938203;29;20216;-96
2022/04/27 00:20:25;;;;;;;12.27;4.80;;;11.20;56.30;;;;;;4935058;29;20303;-96
2022/04/27 00:22:53;;;;;;;7.70;3.80;;;11.20;56.40;;;;;;4919267;29;20903;-96
2022/04/27 00:25:23;;;;;;;10.90;4.60;;;11.10;56.30;;;;;;4936265;29;20208;-96
2022/04/27 00:27:56;;;;;;;9.27;4.57;;;11.10;56.60;;;;;;4937420;29;20242;-96
2022/04/27 00:30:27;;;;;;;10.50;4.77;;;11.00;56.80;;;;;;4940171;29;20240;-96
2022/04/27 00:32:55;;;;;;;13.67;5.53;;;11.00;56.60;;;;;;4932591;29;20201;-96
2022/04/27 00:35:26;;;;;;;12.03;4.60;;;11.00;56.90;;;;;;4938643;29;20314;-96
2022/04/27 00:38:22;;;;;;;9.40;5.10;;;11.00;56.90;;;;;;4940251;29;20284;-96
2022/04/27 00:40:51;;;;;;;10.83;4.53;;;10.90;56.90;;;;;;4939551;29;20287;-96
2022/04/27 00:44:09;;;;;;;10.80;4.53;;;10.90;56.70;;;;;;4928143;29;20225;-96
2022/04/27 00:46:38;;;;;;;10.90;4.20;;;10.90;57.00;;;;;;4918749;29;20209;-96
2022/04/27 00:49:06;;;;;;;10.60;4.60;;;10.90;56.70;;;;;;4918266;29;20366;-96
2022/04/27 00:51:36;;;;;;;8.13;4.03;;;10.90;56.50;;;;;;4932267;29;20232;-96
2022/04/27 00:54:04;;;;;;;8.10;4.30;;;10.80;56.60;;;;;;4935896;29;20212;-96
2022/04/27 00:56:31;;;;;;;14.17;5.57;;;10.80;56.90;;;;;;4936637;29;20230;-96
2022/04/27 00:58:58;;;;;;;9.83;4.63;;;10.70;56.80;;;;;;4937558;29;20949;-96
2022/04/27 01:01:26;;;;;;;12.90;5.00;;;10.70;56.90;;;;;;4936719;29;20768;-96
2022/04/27 01:03:53;;;;;;;10.67;4.73;;;10.70;57.20;;;;;;4934262;29;20272;-96
2022/04/27 01:06:22;;;;;;;16.50;5.63;;;10.60;57.20;;;;;;4934155;29;20235;-96
2022/04/27 01:08:51;;;;;;;13.33;5.90;;;10.60;57.20;;;;;;4934938;29;20348;-96
2022/04/27 01:11:27;;;;;;;12.50;5.03;;;10.60;57.30;;;;;;4934897;29;20657;-96
2022/04/27 01:13:54;;;;;;;13.03;5.27;;;10.50;57.10;;;;;;4935648;29;20661;-96
2022/04/27 01:16:21;;;;;;;14.47;4.90;;;10.50;57.10;;;;;;4933104;29;20263;-96
2022/04/27 01:18:50;;;;;;;8.13;4.20;;;10.50;57.10;;;;;;4933993;29;20212;-96
2022/04/27 01:21:31;;;;;;;9.17;4.40;;;10.50;57.20;;;;;;4934256;29;20220;-96
2022/04/27 01:23:58;;;;;;;9.10;4.60;;;10.50;57.40;;;;;;4929312;29;20211;-96
2022/04/27 01:26:25;;;;;;;9.63;5.00;;;10.40;57.20;;;;;;4934907;29;20675;-96
2022/04/27 01:28:53;;;;;;;9.33;5.00;;;10.40;57.70;;;;;;4924237;29;20232;-96
2022/04/27 01:31:22;;;;;;;8.27;4.77;;;10.40;57.30;;;;;;4916832;29;20200;-96
2022/04/27 01:33:49;;;;;;;7.83;4.93;;;10.40;57.70;;;;;;4935217;29;20256;-96
2022/04/27 01:36:20;;;;;;;13.13;5.30;;;10.40;57.80;;;;;;4923470;29;20304;-96
2022/04/27 01:38:49;;;;;;;10.90;5.23;;;10.30;58.00;;;;;;4917152;29;20224;-96
2022/04/27 01:41:19;;;;;;;9.97;4.90;;;10.30;57.90;;;;;;4927400;29;20244;-96
2022/04/27 01:43:48;;;;;;;13.23;5.63;;;10.30;58.70;;;;;;4933296;29;20271;-96
2022/04/27 01:46:17;;;;;;;10.30;5.53;;;10.30;58.40;;;;;;4934596;29;20211;-96
2022/04/27 01:48:51;;;;;;;9.77;4.60;;;10.30;58.40;;;;;;4935586;29;20244;-96
2022/04/27 01:54:14;;;;;;;8.77;5.27;;;10.20;58.40;;;;;;4935710;29;20274;-96
2022/04/27 01:54:17;;;;;;;11.17;5.50;;;10.20;58.10;;;;;;4935190;29;20208;-96
2022/04/27 01:56:47;;;;;;;12.40;5.47;;;10.20;58.10;;;;;;4916571;29;20255;-95
2022/04/27 01:59:16;;;;;;;8.27;4.37;;;10.10;58.20;;;;;;4929775;29;20211;-96
2022/04/27 02:01:45;;;;;;;8.80;4.67;;;10.10;58.40;;;;;;4935674;29;20212;-96
2022/04/27 02:04:34;;;;;;;12.60;5.70;;;10.00;58.40;;;;;;4936751;29;20213;-95
2022/04/27 02:07:08;;;;;;;9.73;4.90;;;10.00;58.40;;;;;;4935659;29;20210;-95
2022/04/27 02:09:48;;;;;;;9.47;4.70;;;10.00;58.50;;;;;;4927407;29;20269;-95
2022/04/27 02:12:17;;;;;;;9.50;5.37;;;9.90;59.70;;;;;;4935534;29;20210;-95
2022/04/27 02:14:45;;;;;;;8.60;4.83;;;9.90;59.20;;;;;;4916819;29;20205;-95
2022/04/27 02:19:54;;;;;;;8.80;4.70;;;9.90;59.20;;;;;;4933006;29;20200;-96
2022/04/27 02:22:22;;;;;;;16.17;6.63;;;9.90;59.30;;;;;;4935168;29;20667;-96
2022/04/27 02:24:49;;;;;;;12.40;5.33;;;9.90;59.60;;;;;;4936950;29;20665;-96
2022/04/27 02:27:19;;;;;;;14.00;5.73;;;9.90;59.50;;;;;;4933899;29;20204;-95
2022/04/27 02:29:47;;;;;;;16.57;6.47;;;9.80;59.60;;;;;;4933840;29;20231;-95
2022/04/27 02:32:15;;;;;;;7.83;4.50;;;9.80;59.70;;;;;;4935411;29;20298;-95
2022/04/27 02:34:58;;;;;;;15.17;5.67;;;9.80;59.70;;;;;;4935506;29;20706;-95
2022/04/27 02:37:26;;;;;;;7.47;4.47;;;9.80;60.20;;;;;;4933447;29;20274;-96
2022/04/27 02:39:53;;;;;;;11.00;5.10;;;9.70;59.70;;;;;;4938651;29;20271;-96
2022/04/27 02:42:25;;;;;;;7.43;4.43;;;9.70;59.70;;;;;;4938543;29;20728;-95
2022/04/27 02:44:57;;;;;;;11.67;5.53;;;9.70;60.10;;;;;;4939282;29;20208;-96
2022/04/27 02:47:26;;;;;;;8.10;4.27;;;9.70;60.00;;;;;;4938872;29;20211;-96
2022/04/27 02:52:54;;;;;;;10.77;5.13;;;9.60;59.70;;;;;;4938710;29;20191;-96
2022/04/27 02:55:22;;;;;;;8.07;4.77;;;9.60;59.60;;;;;;4920003;29;20700;-96
2022/04/27 02:57:52;;;;;;;18.73;7.53;;;9.60;59.40;;;;;;4928586;29;20214;-95
2022/04/27 03:00:20;;;;;;;12.13;5.83;;;9.50;59.70;;;;;;4936207;29;20665;-94
2022/04/27 03:02:47;;;;;;;14.37;6.47;;;9.50;60.00;;;;;;4935076;29;20736;-96
2022/04/27 03:05:16;;;;;;;9.50;4.77;;;9.50;60.10;;;;;;4937342;29;20208;-95
2022/04/27 03:07:45;;;;;;;8.93;5.40;;;9.50;60.20;;;;;;4937615;29;20263;-95
2022/04/27 03:10:16;;;;;;;9.70;5.10;;;9.40;60.10;;;;;;4938578;29;20240;-96
2022/04/27 03:12:59;;;;;;;11.67;6.00;;;9.40;60.10;;;;;;4936668;29;20218;-95
2022/04/27 03:15:27;;;;;;;7.67;4.70;;;9.40;60.30;;;;;;4938631;29;20215;-96
2022/04/27 03:18:19;;;;;;;10.13;5.10;;;9.40;59.90;;;;;;4925330;29;20220;-96
2022/04/27 03:20:49;;;;;;;16.20;6.67;;;9.30;60.00;;;;;;4922779;29;20228;-96
2022/04/27 03:23:18;;;;;;;9.37;5.53;;;9.30;59.70;;;;;;4942090;29;20239;-96
2022/04/27 03:25:46;;;;;;;12.13;6.00;;;9.20;59.90;;;;;;4940626;29;20555;-94
2022/04/27 03:28:14;;;;;;;8.77;5.33;;;9.20;59.90;;;;;;4935240;29;20263;-96
2022/04/27 03:30:43;;;;;;;12.13;6.10;;;9.20;60.00;;;;;;4937354;29;20257;-95
2022/04/27 03:33:12;;;;;;;10.33;5.27;;;9.20;60.30;;;;;;4938026;29;20272;-96
2022/04/27 03:35:39;;;;;;;12.63;6.17;;;9.20;60.40;;;;;;4939546;29;20283;-96
2022/04/27 03:38:08;;;;;;;12.60;5.53;;;9.10;60.40;;;;;;4938421;29;20231;-96
2022/04/27 03:40:56;;;;;;;10.53;5.50;;;9.10;60.10;;;;;;4938004;29;20212;-96
2022/04/27 03:43:23;;;;;;;11.57;5.90;;;9.10;60.40;;;;;;4938563;29;20223;-96
2022/04/27 03:45:52;;;;;;;12.43;5.63;;;9.00;60.10;;;;;;4950832;29;20218;-96
2022/04/27 03:48:19;;;;;;;7.10;5.07;;;9.00;60.70;;;;;;4940829;29;20892;-96
2022/04/27 03:50:47;;;;;;;9.37;5.17;;;9.00;60.50;;;;;;4941013;29;20292;-96
2022/04/27 03:53:15;;;;;;;14.40;6.20;;;9.00;60.50;;;;;;4940936;29;20216;-96
2022/04/27 03:55:48;;;;;;;8.80;5.03;;;9.00;60.50;;;;;;4939746;29;20211;-96
2022/04/27 03:58:19;;;;;;;8.47;4.70;;;9.00;60.80;;;;;;4939459;29;20218;-96
2022/04/27 04:00:47;;;;;;;6.33;4.73;;;9.00;60.60;;;;;;4930135;29;20204;-96
2022/04/27 04:03:14;;;;;;;9.70;5.33;;;8.90;60.60;;;;;;4938481;29;20235;-95
2022/04/27 04:05:53;;;;;;;11.20;5.93;;;9.00;60.80;;;;;;4938267;29;20239;-96
2022/04/27 04:08:21;;;;;;;7.90;4.97;;;8.90;61.20;;;;;;4939302;29;20221;-96
2022/04/27 04:10:48;;;;;;;11.63;5.77;;;8.90;60.90;;;;;;4951830;28;20258;-96
2022/04/27 04:13:36;;;;;;;;;;;;;;;;;;;;;
2022/04/27 04:16:10;;;;;;;10.37;6.33;;;8.90;60.70;;;;;;4948840;29;20655;-96
2022/04/27 04:18:37;;;;;;;10.53;6.30;;;8.80;60.70;;;;;;4943470;29;20232;-96
2022/04/27 04:21:04;;;;;;;10.87;6.40;;;8.80;60.80;;;;;;4940145;29;20209;-95
2022/04/27 04:23:33;;;;;;;10.97;6.67;;;8.80;61.00;;;;;;4938490;29;20199;-95
2022/04/27 04:28:49;;;;;;;9.97;6.00;;;8.80;60.30;;;;;;4938845;29;20554;-96
2022/04/27 04:33:57;;;;;;;11.20;6.00;;;8.70;60.50;;;;;;4935780;29;20221;-95
2022/04/27 04:36:24;;;;;;;9.97;6.13;;;8.80;60.80;;;;;;4936669;29;20220;-95
2022/04/27 04:39:02;;;;;;;;;;;;;;;;;;;;;
2022/04/27 04:41:30;;;;;;;11.63;7.07;;;8.70;60.50;;;;;;4925561;29;20220;-95
2022/04/27 04:44:02;;;;;;;10.63;7.17;;;8.70;61.40;;;;;;4936752;29;20279;-96
2022/04/27 04:46:29;;;;;;;11.67;6.90;;;8.70;61.20;;;;;;4936834;29;20205;-95
2022/04/27 04:48:56;;;;;;;10.57;6.53;;;8.70;61.20;;;;;;4937246;29;20255;-95
2022/04/27 04:54:10;;;;;;;14.00;7.27;;;8.70;62.30;;;;;;4928750;29;20258;-95
2022/04/27 04:56:37;;;;;;;12.93;6.40;;;8.70;62.00;;;;;;4935802;29;20213;-95
2022/04/27 04:59:06;;;;;;;9.80;6.57;;;8.70;62.30;;;;;;4937692;29;20219;-95
2022/04/27 05:01:45;;;;;;;19.40;8.60;;;8.70;63.40;;;;;;4926280;29;20212;-95
2022/04/27 05:04:14;;;;;;;14.67;7.40;;;8.70;63.10;;;;;;4931828;29;20198;-94
2022/04/27 05:06:43;;;;;;;16.43;7.93;;;8.70;62.70;;;;;;4935199;29;20293;-94
2022/04/27 05:09:14;;;;;;;13.83;7.73;;;8.70;62.70;;;;;;4935395;29;20200;-94
2022/04/27 05:11:48;;;;;;;16.43;8.00;;;8.70;62.70;;;;;;4935647;29;20232;-95
2022/04/27 05:14:16;;;;;;;12.67;8.03;;;8.70;62.80;;;;;;4935255;29;20207;-94
2022/04/27 05:16:44;;;;;;;12.37;7.73;;;8.70;62.80;;;;;;4934213;29;20877;-95
2022/04/27 05:19:11;;;;;;;17.23;8.77;;;8.70;62.70;;;;;;4935223;29;20217;-94
2022/04/27 05:21:38;;;;;;;16.50;9.50;;;8.70;62.80;;;;;;4936424;29;20207;-95
2022/04/27 05:24:06;;;;;;;20.80;10.80;;;8.70;63.20;;;;;;4936098;29;20346;-96
2022/04/27 05:26:35;;;;;;;16.77;9.93;;;8.70;63.60;;;;;;4936350;29;20224;-93
2022/04/27 05:31:57;;;;;;;19.53;10.50;;;8.80;64.30;;;;;;4933188;29;20231;-91
2022/04/27 05:34:26;;;;;;;16.80;9.90;;;8.80;64.50;;;;;;4929733;29;20209;-92
2022/04/27 05:36:55;;;;;;;17.93;9.47;;;8.80;64.40;;;;;;4934113;29;20215;-92
2022/04/27 05:39:23;;;;;;;19.80;9.77;;;8.90;64.20;;;;;;4933612;29;20208;-92
2022/04/27 05:41:53;;;;;;;17.57;8.30;;;8.90;63.50;;;;;;4934074;29;20252;-92
2022/04/27 05:44:21;;;;;;;19.83;9.33;;;8.90;63.50;;;;;;4932964;29;20207;-93
2022/04/27 05:46:58;;;;;;;14.87;8.30;;;9.00;63.40;;;;;;4935589;29;20240;-93
2022/04/27 05:49:26;;;;;;;16.13;8.33;;;9.00;63.50;;;;;;4932607;29;20234;-93
2022/04/27 05:51:57;;;;;;;20.30;8.67;;;9.10;63.00;;;;;;4931447;29;20728;-93
2022/04/27 05:54:25;;;;;;;17.57;9.23;;;9.10;62.90;;;;;;4932000;29;20245;-93
2022/04/27 05:57:08;;;;;;;18.90;9.50;;;9.20;62.80;;;;;;4935316;29;20204;-93
2022/04/27 05:59:38;;;;;;;14.57;8.73;;;9.30;62.90;;;;;;4937850;29;20262;-93
2022/04/27 06:02:08;;;;;;;17.87;9.37;;;9.30;63.00;;;;;;4923273;29;20247;-93
2022/04/27 06:04:36;;;;;;;13.63;8.33;;;9.40;63.80;;;;;;4931336;29;20215;-93
2022/04/27 06:07:04;;;;;;;17.97;9.00;;;9.40;63.80;;;;;;4934155;29;20216;-95
2022/04/27 06:09:32;;;;;;;16.47;9.20;;;9.50;64.60;;;;;;4934417;29;20227;-94
2022/04/27 06:12:01;;;;;;;20.50;9.60;;;9.60;66.40;;;;;;4934414;29;20247;-93
2022/04/27 06:14:28;;;;;;;17.10;9.13;;;9.70;67.60;;;;;;4935034;29;20789;-93
2022/04/27 06:17:02;;;;;;;14.13;8.53;;;9.70;67.80;;;;;;4934277;29;20222;-93
2022/04/27 06:19:31;;;;;;;13.70;8.93;;;9.90;68.80;;;;;;4934625;29;20222;-93
2022/04/27 06:21:58;;;;;;;18.80;9.77;;;10.00;68.00;;;;;;4926277;29;20215;-92
2022/04/27 06:24:28;;;;;;;19.67;9.47;;;10.00;68.00;;;;;;4931534;29;20220;-93
2022/04/27 06:26:55;;;;;;;21.77;10.77;;;10.20;68.30;;;;;;4932036;29;20209;-92
2022/04/27 06:29:25;;;;;;;19.20;9.33;;;10.30;68.60;;;;;;4934465;29;20204;-93
2022/04/27 06:31:58;;;;;;;15.77;8.40;;;10.30;68.80;;;;;;4934140;29;20665;-91
2022/04/27 06:34:28;;;;;;;13.70;8.23;;;10.50;69.30;;;;;;4934061;29;20219;-92
2022/04/27 06:36:57;;;;;;;13.60;8.77;;;10.60;68.70;;;;;;4934574;29;20220;-94
2022/04/27 06:39:31;;;;;;;21.43;8.90;;;10.60;69.10;;;;;;4934682;29;20196;-93
2022/04/27 06:42:04;;;;;;;15.70;8.10;;;10.70;69.00;;;;;;4934771;29;20657;-94
2022/04/27 06:44:32;;;;;;;13.83;7.50;;;10.90;69.10;;;;;;4936172;29;20215;-94
2022/04/27 06:47:00;;;;;;;19.67;7.90;;;11.00;68.80;;;;;;4933645;29;20216;-95
2022/04/27 06:49:27;;;;;;;19.53;8.57;;;11.10;69.20;;;;;;4933073;29;20899;-91
2022/04/27 06:51:55;;;;;;;14.10;7.23;;;11.20;68.60;;;;;;4931780;29;20238;-94
2022/04/27 06:54:26;;;;;;;17.03;7.77;;;11.30;68.50;;;;;;4927694;29;20318;-93
2022/04/27 06:56:53;;;;;;;20.93;9.07;;;11.30;68.10;;;;;;4932196;29;20210;-93
2022/04/27 06:59:21;;;;;;;17.10;8.20;;;11.50;67.80;;;;;;4921178;29;20215;-93
2022/04/27 07:01:50;;;;;;;22.57;9.37;;;11.60;67.90;;;;;;4929897;29;20263;-92
2022/04/27 07:04:19;;;;;;;16.10;7.73;;;11.70;68.10;;;;;;4930634;29;20212;-93
2022/04/27 07:06:47;;;;;;;13.53;6.40;;;11.70;67.80;;;;;;4931431;29;20212;-93
2022/04/27 07:09:17;;;;;;;14.90;7.00;;;11.80;67.30;;;;;;4931899;29;20261;-92
2022/04/27 07:11:48;;;;;;;14.33;6.70;;;11.90;67.60;;;;;;4932334;29;20235;-92
2022/04/27 07:14:16;;;;;;;14.57;7.23;;;12.00;67.20;;;;;;4928230;29;20213;-93
2022/04/27 07:16:43;;;;;;;16.30;7.17;;;12.10;66.90;;;;;;4930982;29;20210;-92
2022/04/27 07:19:11;;;;;;;11.97;6.67;;;12.20;66.30;;;;;;4938520;29;20234;-93
2022/04/27 07:21:39;;;;;;;12.47;6.20;;;12.30;66.00;;;;;;4948894;29;20209;-93
2022/04/27 07:24:07;;;;;;;14.63;7.40;;;12.40;65.70;;;;;;4936986;29;20203;-94
2022/04/27 07:26:52;;;;;;;12.33;5.87;;;12.50;65.70;;;;;;5165607;27;20282;-92
2022/04/27 07:29:22;;;;;;;10.93;5.40;;;12.60;65.30;;;;;;5138681;27;20209;-93
2022/04/27 07:31:59;;;;;;;15.47;6.07;;;12.70;64.70;;;;;;5153229;27;20214;-92
2022/04/27 07:34:26;;;;;;;16.17;6.87;;;12.80;63.90;;;;;;5134202;27;20207;-93
2022/04/27 07:36:54;;;;;;;11.53;5.17;;;12.90;63.40;;;;;;5140505;27;20211;-94
2022/04/27 07:39:21;;;;;;;15.87;6.13;;;12.90;62.90;;;;;;5134053;27;20213;-94
2022/04/27 07:42:01;;;;;;;13.80;5.83;;;13.00;62.40;;;;;;5149633;27;20647;-93
2022/04/27 07:44:28;;;;;;;14.20;5.43;;;13.10;62.30;;;;;;5138803;27;20298;-92
2022/04/27 07:46:55;;;;;;;10.33;4.57;;;13.20;62.20;;;;;;5154364;27;20223;-94
2022/04/27 07:49:22;;;;;;;11.30;4.90;;;13.30;61.50;;;;;;5128964;28;20223;-93
2022/04/27 07:51:53;;;;;;;12.73;5.43;;;13.40;60.80;;;;;;5128861;28;20298;-95
2022/04/27 07:54:20;;;;;;;12.63;5.97;;;13.40;60.90;;;;;;5133502;28;20233;-93
2022/04/27 07:56:53;;;;;;;9.10;4.97;;;13.50;60.40;;;;;;5128986;27;20542;-94
2022/04/27 07:59:22;;;;;;;11.23;5.67;;;13.60;60.00;;;;;;5122539;27;20286;-92
2022/04/27 08:01:49;;;;;;;11.63;5.67;;;13.70;59.70;;;;;;5127388;28;20211;-91
2022/04/27 08:04:19;;;;;;;12.60;5.43;;;13.70;59.20;;;;;;5127698;28;20209;-93
2022/04/27 08:06:46;;;;;;;12.20;4.57;;;13.80;58.80;;;;;;5127738;28;20220;-93
2022/04/27 08:09:16;;;;;;;11.77;4.87;;;13.90;58.40;;;;;;5126901;28;20209;-92
2022/04/27 08:11:47;;;;;;;10.50;4.87;;;13.90;58.30;;;;;;5127217;28;20206;-90
2022/04/27 08:14:14;;;;;;;10.57;4.70;;;14.10;58.40;;;;;;5124981;28;20214;-93
2022/04/27 08:16:45;;;;;;;13.87;6.10;;;14.10;58.40;;;;;;5124228;27;20647;-94
2022/04/27 08:19:14;;;;;;;9.03;4.70;;;14.20;58.40;;;;;;5125673;27;20278;-93
2022/04/27 08:21:42;;;;;;;16.07;6.70;;;14.30;58.20;;;;;;5117591;28;20198;-94
2022/04/27 08:24:11;;;;;;;7.40;3.70;;;14.40;57.70;;;;;;5117338;28;20621;-94
2022/04/27 08:26:38;;;;;;;18.43;7.23;;;14.40;57.40;;;;;;5116715;28;20234;-92
2022/04/27 08:29:05;;;;;;;9.93;4.30;;;14.50;57.10;;;;;;5119760;22;20226;-94
2022/04/27 08:31:33;;;;;;;9.07;4.37;;;14.60;57.10;;;;;;5097699;28;20194;-91
2022/04/27 08:34:02;;;;;;;9.67;4.80;;;14.70;56.90;;;;;;5096312;28;20195;-95
2022/04/27 08:36:29;;;;;;;10.03;4.77;;;14.80;56.70;;;;;;5097034;28;20203;-94
2022/04/27 08:38:56;;;;;;;11.27;5.70;;;14.90;56.50;;;;;;5092541;28;20191;-93
2022/04/27 08:41:26;;;;;;;12.23;5.83;;;14.90;55.40;;;;;;5092439;28;20238;-94
2022/04/27 08:43:57;;;;;;;12.50;5.23;;;15.10;56.10;;;;;;5093695;28;20221;-94
2022/04/27 08:46:27;;;;;;;10.53;4.57;;;15.10;56.30;;;;;;5093289;28;20226;-92
2022/04/27 08:48:55;;;;;;;10.40;5.03;;;15.20;56.00;;;;;;5092966;28;20231;-92
2022/04/27 08:51:24;;;;;;;10.63;5.50;;;15.30;55.90;;;;;;5094339;28;20213;-93
2022/04/27 08:53:51;;;;;;;7.87;4.70;;;15.40;56.00;;;;;;5094231;28;20204;-95
2022/04/27 08:56:18;;;;;;;11.37;5.40;;;15.50;56.40;;;;;;5092907;28;20204;-94
2022/04/27 08:58:46;;;;;;;8.20;4.83;;;15.60;56.20;;;;;;5093254;28;20234;-92
2022/04/27 09:01:16;;;;;;;9.30;5.03;;;15.80;55.90;;;;;;5093060;28;20207;-90
2022/04/27 09:03:44;;;;;;;9.63;4.97;;;16.00;54.30;;;;;;5092294;28;20207;-93
2022/04/27 09:06:13;;;;;;;7.57;3.80;;;16.20;54.80;;;;;;5092791;28;20241;-93
2022/04/27 09:08:52;;;;;;;10.80;4.80;;;16.40;54.00;;;;;;5075161;28;20574;-93
2022/04/27 09:11:20;;;;;;;11.07;4.77;;;16.70;52.50;;;;;;5072001;28;20674;-91
2022/04/27 09:14:01;;;;;;;15.47;5.70;;;16.80;52.90;;;;;;5071618;28;20194;-95
2022/04/27 09:20:46;;;;;;;12.50;5.10;;;17.10;52.20;;;;;;5073367;28;20203;-93
2022/04/27 09:23:00;;;;;;;6.57;2.83;;;17.40;51.40;;;;;;5049406;28;20590;-93
2022/04/27 09:25:38;;;;;;;6.87;3.60;;;17.60;51.10;;;;;;5049850;28;20321;-95
2022/04/27 09:28:06;;;;;;;5.50;2.77;;;17.70;50.70;;;;;;5082699;28;20288;-94
2022/04/27 09:30:35;;;;;;;7.37;3.60;;;17.80;50.90;;;;;;5091602;28;20612;-94
2022/04/27 09:33:05;;;;;;;6.50;3.33;;;17.80;49.90;;;;;;5092416;28;20523;-92
2022/04/27 09:35:34;;;;;;;6.87;3.30;;;17.80;49.10;;;;;;5093218;28;20191;-93
2022/04/27 09:38:17;;;;;;;10.17;3.33;;;17.80;49.10;;;;;;5092621;28;20205;-94
2022/04/27 09:40:54;;;;;;;6.27;3.43;;;17.80;48.00;;;;;;5093182;28;20354;-94
2022/04/27 09:43:42;;;;;;;7.87;3.50;;;17.70;48.70;;;;;;5091949;28;20220;-94
2022/04/27 09:46:17;;;;;;;9.60;5.30;;;17.60;48.10;;;;;;5091122;28;20236;-92
2022/04/27 09:48:48;;;;;;;8.80;4.87;;;17.60;48.50;;;;;;5089700;28;20253;-92
2022/04/27 09:51:16;;;;;;;8.60;4.13;;;17.50;48.30;;;;;;5092396;28;20214;-93
2022/04/27 09:53:43;;;;;;;6.67;3.63;;;17.40;48.10;;;;;;5092087;28;20197;-91
2022/04/27 09:56:18;;;;;;;5.33;2.90;;;17.30;49.00;;;;;;5092002;28;20212;-94
2022/04/27 09:58:48;;;;;;;8.00;4.03;;;17.30;48.80;;;;;;5091197;28;20214;-94
2022/04/27 10:01:18;;;;;;;5.83;2.97;;;17.30;48.90;;;;;;5092058;28;20200;-96
2022/04/27 10:03:49;;;;;;;10.17;4.87;;;17.30;48.20;;;;;;5086461;28;20213;-92
2022/04/27 10:06:17;;;;;;;17.23;7.07;;;17.40;48.30;;;;;;5095989;28;20232;-92
2022/04/27 10:08:45;;;;;;;9.33;5.07;;;17.40;49.30;;;;;;5097230;28;20240;-90
2022/04/27 10:11:14;;;;;;;10.47;5.43;;;17.50;49.20;;;;;;5085421;28;20259;-91
2022/04/27 10:13:51;;;;;;;7.97;4.07;;;17.60;49.00;;;;;;5088082;28;20210;-92
2022/04/27 10:16:31;;;;;;;9.13;4.33;;;17.80;49.10;;;;;;5090028;28;20195;-92
2022/04/27 10:19:17;;;;;;;5.80;3.10;;;18.00;49.60;;;;;;5097471;28;20207;-93
2022/04/27 10:21:56;;;;;;;10.83;5.03;;;18.30;49.40;;;;;;5074567;28;20656;-92
2022/04/27 10:24:49;;;;;;;8.03;4.27;;;18.50;50.00;;;;;;5077790;28;20650;-92
2022/04/27 10:27:18;;;;;;;16.17;6.80;;;18.70;48.40;;;;;;5081651;28;20226;-92
2022/04/27 10:29:52;;;;;;;7.70;3.73;;;19.00;49.40;;;;;;5083456;28;20218;-93
2022/04/27 10:32:45;;;;;;;10.17;4.40;;;19.20;48.30;;;;;;5082369;28;20700;-92
2022/04/27 10:35:46;;;;;;;18.80;7.97;;;19.40;46.70;;;;;;5078814;28;20252;-93
2022/04/27 10:38:24;;;;;;;9.13;4.53;;;19.50;46.70;;;;;;5078610;28;20195;-93
2022/04/27 10:43:31;;;;;;;10.80;5.03;;;19.70;48.00;;;;;;5088943;22;20230;-95
2022/04/27 10:46:00;;;;;;;11.67;5.80;;;19.80;47.70;;;;;;5085550;28;20249;-94
2022/04/27 10:48:49;;;;;;;8.70;4.80;;;19.80;47.50;;;;;;5083287;28;20211;-91
2022/04/27 10:51:21;;;;;;;8.30;4.67;;;19.90;46.10;;;;;;5087714;28;20616;-89
2022/04/27 10:56:32;;;;;;;11.87;5.47;;;20.00;46.70;;;;;;5081063;28;20215;-93
2022/04/27 10:59:03;;;;;;;9.03;4.47;;;20.00;46.70;;;;;;5092987;28;20235;-96
2022/04/27 11:01:35;;;;;;;6.47;4.00;;;20.10;46.80;;;;;;5091355;28;20213;-93
2022/04/27 11:04:20;;;;;;;10.97;5.03;;;20.20;47.10;;;;;;5093304;28;20214;-94
2022/04/27 11:10:16;;;;;;;6.30;3.43;;;20.50;46.90;;;;;;5118752;22;20598;-94
2022/04/27 11:12:48;;;;;;;8.93;4.50;;;20.70;47.60;;;;;;5070459;28;20220;-94
2022/04/27 11:15:18;;;;;;;6.83;3.97;;;20.80;46.90;;;;;;5071102;28;20223;-94
2022/04/27 11:17:56;;;;;;;7.03;4.03;;;21.00;47.00;;;;;;5070752;28;20244;-93
2022/04/27 11:20:34;;;;;;;10.43;4.83;;;21.10;46.00;;;;;;5073903;28;20215;-93
2022/04/27 11:25:53;;;;;;;6.93;3.50;;;21.30;45.50;;;;;;5098863;28;20207;-95
2022/04/27 11:28:29;;;;;;;6.30;3.53;;;21.30;45.50;;;;;;5099264;28;20206;-93
2022/04/27 11:30:58;;;;;;;9.03;3.50;;;21.20;45.20;;;;;;5091468;28;20206;-94
2022/04/27 11:33:26;;;;;;;10.10;4.10;;;21.20;45.00;;;;;;5091106;28;20707;-94
2022/04/27 11:35:55;;;;;;;8.00;4.37;;;21.10;45.10;;;;;;5090338;28;20225;-93
2022/04/27 11:38:33;;;;;;;4.67;2.83;;;20.90;45.10;;;;;;5090525;28;20212;-95
2022/04/27 11:41:02;;;;;;;9.03;4.10;;;20.80;45.10;;;;;;5091316;28;20248;-94
2022/04/27 11:43:32;;;;;;;5.60;3.40;;;20.70;45.40;;;;;;5089956;28;20220;-93
2022/04/27 11:46:00;;;;;;;9.90;4.43;;;20.60;45.30;;;;;;5085446;28;20231;-93
2022/04/27 11:48:31;;;;;;;5.57;3.50;;;20.50;45.60;;;;;;5072942;28;20295;-94
2022/04/27 11:59:23;;;;;;;8.57;4.07;;;20.20;45.50;;;;;;5009320;26;20236;-94
2022/04/27 12:01:54;;;;;;;10.77;5.07;;;20.10;45.60;;;;;;5008498;28;20205;-91
2022/04/27 12:04:22;;;;;;;6.03;4.17;;;20.00;45.70;;;;;;5010504;28;20921;-95
2022/04/27 12:06:51;;;;;;;9.50;5.13;;;19.90;45.60;;;;;;5008707;28;20320;-94
2022/04/27 12:12:08;;;;;;;10.23;5.03;;;19.90;45.80;;;;;;4998594;28;20213;-94
2022/04/27 12:14:35;;;;;;;9.13;4.40;;;20.00;45.90;;;;;;5010700;28;20224;-90
2022/04/27 12:17:02;;;;;;;7.27;4.47;;;20.00;46.50;;;;;;5013390;28;20304;-91
2022/04/27 12:19:40;;;;;;;9.30;4.60;;;20.10;46.00;;;;;;5014117;28;21027;-95
2022/04/27 12:22:18;;;;;;;8.77;4.50;;;20.10;46.00;;;;;;5014897;28;20732;-95
2022/04/27 12:24:45;;;;;;;8.73;4.63;;;20.20;45.80;;;;;;5016819;28;20507;-92
2022/04/27 12:27:19;;;;;;;9.10;4.97;;;20.30;45.60;;;;;;5023459;28;20233;-91
2022/04/27 12:29:48;;;;;;;10.27;4.90;;;20.40;45.30;;;;;;5011725;28;20284;-92
2022/04/27 12:32:15;;;;;;;8.57;4.90;;;20.50;45.00;;;;;;5013416;28;20205;-92
2022/04/27 12:38:08;;;;;;;8.43;4.47;;;20.70;44.60;;;;;;5015423;28;20205;-94
2022/04/27 12:40:35;;;;;;;8.83;4.40;;;20.80;44.70;;;;;;5015141;28;20205;-96
2022/04/27 12:43:05;;;;;;;7.23;4.37;;;20.90;45.20;;;;;;5013506;28;20221;-88
2022/04/27 12:45:37;;;;;;;6.47;4.10;;;20.90;43.80;;;;;;5000182;28;20598;-91
2022/04/27 12:48:08;;;;;;;7.50;4.50;;;21.00;44.40;;;;;;4992823;28;20365;-92
2022/04/27 12:50:48;;;;;;;5.50;3.90;;;21.10;44.50;;;;;;4992159;28;20349;-95
2022/04/27 12:53:18;;;;;;;9.43;5.27;;;21.20;44.10;;;;;;4992602;28;20216;-94
2022/04/27 12:56:01;;;;;;;7.30;4.73;;;21.30;44.30;;;;;;4992096;28;20212;-93
2022/04/27 12:58:39;;;;;;;12.97;6.60;;;21.40;44.10;;;;;;4991297;28;20217;-91
2022/04/27 13:01:08;;;;;;;7.73;4.27;;;21.50;44.10;;;;;;4990353;28;20212;-91
2022/04/27 13:03:35;;;;;;;8.50;4.97;;;21.60;44.00;;;;;;4991884;28;20574;-93
2022/04/27 13:06:04;;;;;;;6.23;3.80;;;21.70;43.40;;;;;;4994918;28;20268;-92
2022/04/27 13:08:42;;;;;;;9.17;5.43;;;21.70;43.00;;;;;;4991244;28;20344;-93
2022/04/27 13:14:04;;;;;;;7.67;4.03;;;21.80;42.00;;;;;;4980008;28;20209;-94
2022/04/27 13:16:31;;;;;;;7.07;4.10;;;21.80;42.20;;;;;;5016893;22;20287;-96
2022/04/27 13:18:59;;;;;;;9.57;4.07;;;21.80;42.90;;;;;;5013336;28;20621;-92
2022/04/27 13:21:27;;;;;;;9.20;4.87;;;21.80;43.00;;;;;;5012802;28;20201;-93
2022/04/27 13:23:54;;;;;;;9.70;5.07;;;21.80;42.20;;;;;;5012868;28;20586;-89
2022/04/27 13:26:21;;;;;;;6.80;4.20;;;21.80;42.70;;;;;;5010831;28;20205;-96
2022/04/27 13:31:30;;;;;;;6.27;4.13;;;21.90;42.30;;;;;;5012507;28;20227;-92
2022/04/27 13:34:00;;;;;;;7.37;4.43;;;21.90;42.10;;;;;;5012127;28;20217;-95
2022/04/27 13:36:28;;;;;;;6.93;3.77;;;21.90;42.60;;;;;;5011576;28;20209;-96
2022/04/27 13:38:56;;;;;;;9.40;4.43;;;21.90;42.70;;;;;;5014017;28;20206;-96
2022/04/27 13:41:30;;;;;;;10.67;4.47;;;21.90;42.50;;;;;;5014692;28;20284;-96
2022/04/27 13:43:58;;;;;;;9.07;4.57;;;21.90;41.80;;;;;;4998366;28;20284;-95
2022/04/27 13:46:25;;;;;;;6.20;3.80;;;21.90;42.10;;;;;;5012307;22;20230;-93
2022/04/27 13:48:58;;;;;;;5.47;3.40;;;21.90;42.80;;;;;;5017854;28;20200;-96
2022/04/27 13:51:25;;;;;;;10.17;5.10;;;21.80;42.50;;;;;;5032447;28;20661;-93
2022/04/27 13:54:07;;;;;;;8.93;4.50;;;21.90;42.30;;;;;;5031531;28;20719;-95
2022/04/27 13:56:34;;;;;;;10.83;3.63;;;21.90;42.20;;;;;;5029303;28;20212;-96